sensor_id;sensor_type;location;lat;lon;timestamp;pressure;altitude;pressure_sealevel;temperature;humidity
56038;BME280;41907;47.848;9.000;2024-03-02T00:02:06;94650.34;;;4.04;100.00
56038;BME280;41907;47.848;9.000;2024-03-02T00:04:31;94647.59;;;4.09;100.00
56038;BME280;41907;47.848;9.000;2024-03-02T00:06:56;94656.19;;;4.29;100.00
56038;BME280;41907;47.848;9.000;2024-03-02T00:09:22;94647.41;;;4.33;100.00
56038;BME280;41907;47.848;9.000;2024-03-02T00:11:47;94656.22;;;4.42;100.00
56038;BME280;41907;47.848;9.000;2024-03-02T00:14:12;94663.44;;;4.51;100.00
56038;BME280;41907;47.848;9.000;2024-03-02T00:16:38;94653.94;;;4.49;100.00
56038;BME280;41907;47.848;9.000;2024-03-02T00:19:05;94663.03;;;4.57;100.00
56038;BME280;41907;47.848;9.000;2024-03-02T00:21:32;94658.53;;;4.58;100.00
56038;BME280;41907;47.848;9.000;2024-03-02T00:23:59;94663.03;;;4.57;100.00
56038;BME280;41907;47.848;9.000;2024-03-02T00:26:25;94667.53;;;4.57;100.00
56038;BME280;41907;47.848;9.000;2024-03-02T00:28:54;94660.97;;;4.54;100.00
56038;BME280;41907;47.848;9.000;2024-03-02T00:31:22;94666.84;;;4.51;100.00
56038;BME280;41907;47.848;9.000;2024-03-02T00:33:48;94660.88;;;4.45;100.00
56038;BME280;41907;47.848;9.000;2024-03-02T00:36:16;94662.28;;;4.43;100.00
56038;BME280;41907;47.848;9.000;2024-03-02T00:41:16;94669.41;;;4.42;100.00
56038;BME280;41907;47.848;9.000;2024-03-02T00:43:45;94663.13;;;4.38;100.00
56038;BME280;41907;47.848;9.000;2024-03-02T00:46:15;94670.66;;;4.45;100.00
56038;BME280;41907;47.848;9.000;2024-03-02T00:48:58;94663.72;;;4.35;100.00
56038;BME280;41907;47.848;9.000;2024-03-02T00:51:25;94663.81;;;4.17;100.00
56038;BME280;41907;47.848;9.000;2024-03-02T00:53:52;94668.31;;;4.16;100.00
56038;BME280;41907;47.848;9.000;2024-03-02T00:56:20;94665.56;;;4.07;100.00
56038;BME280;41907;47.848;9.000;2024-03-02T00:58:46;94666.34;;;4.08;100.00
56038;BME280;41907;47.848;9.000;2024-03-02T01:01:11;94673.78;;;4.20;100.00
56038;BME280;41907;47.848;9.000;2024-03-02T01:03:37;94670.09;;;4.21;100.00
56038;BME280;41907;47.848;9.000;2024-03-02T01:06:03;94667.44;;;4.21;100.00
56038;BME280;41907;47.848;9.000;2024-03-02T01:08:28;94671.16;;;4.20;100.00
56038;BME280;41907;47.848;9.000;2024-03-02T01:10:54;94673.13;;;4.14;100.00
56038;BME280;41907;47.848;9.000;2024-03-02T01:13:21;94674.44;;;3.98;100.00
56038;BME280;41907;47.848;9.000;2024-03-02T01:15:46;94672.41;;;3.95;100.00
56038;BME280;41907;47.848;9.000;2024-03-02T01:18:11;94673.03;;;4.05;100.00
56038;BME280;41907;47.848;9.000;2024-03-02T01:20:37;94672.91;;;4.10;100.00
56038;BME280;41907;47.848;9.000;2024-03-02T01:23:02;94684.75;;;4.13;100.00
56038;BME280;41907;47.848;9.000;2024-03-02T01:25:28;94679.47;;;4.13;100.00
56038;BME280;41907;47.848;9.000;2024-03-02T01:27:53;94683.47;;;4.10;100.00
56038;BME280;41907;47.848;9.000;2024-03-02T01:30:18;94688.75;;;4.10;100.00
56038;BME280;41907;47.848;9.000;2024-03-02T01:32:44;94678.16;;;3.97;100.00
56038;BME280;41907;47.848;9.000;2024-03-02T01:35:09;94683.16;;;3.98;100.00
56038;BME280;41907;47.848;9.000;2024-03-02T01:37:34;94684.72;;;3.99;100.00
56038;BME280;41907;47.848;9.000;2024-03-02T01:40:00;94684.59;;;3.91;100.00
56038;BME280;41907;47.848;9.000;2024-03-02T01:42:25;94684.03;;;3.94;100.00
56038;BME280;41907;47.848;9.000;2024-03-02T01:44:51;94684.09;;;3.89;100.00
56038;BME280;41907;47.848;9.000;2024-03-02T01:47:16;94687.03;;;3.73;100.00
56038;BME280;41907;47.848;9.000;2024-03-02T01:49:41;94670.28;;;3.64;100.00
56038;BME280;41907;47.848;9.000;2024-03-02T01:52:07;94674.25;;;3.48;100.00
56038;BME280;41907;47.848;9.000;2024-03-02T01:54:33;94672.34;;;3.35;100.00
56038;BME280;41907;47.848;9.000;2024-03-02T01:56:59;94675.34;;;3.47;100.00
56038;BME280;41907;47.848;9.000;2024-03-02T01:59:24;94684.44;;;3.55;100.00
56038;BME280;41907;47.848;9.000;2024-03-02T02:01:50;94682.28;;;3.57;100.00
56038;BME280;41907;47.848;9.000;2024-03-02T02:04:15;94681.66;;;3.46;100.00
56038;BME280;41907;47.848;9.000;2024-03-02T02:06:41;94674.75;;;3.31;100.00
56038;BME280;41907;47.848;9.000;2024-03-02T02:09:06;94666.81;;;3.18;100.00
56038;BME280;41907;47.848;9.000;2024-03-02T02:11:34;94666.59;;;3.14;100.00
56038;BME280;41907;47.848;9.000;2024-03-02T02:13:59;94658.28;;;3.07;100.00
56038;BME280;41907;47.848;9.000;2024-03-02T02:16:24;94664.91;;;3.05;100.00
56038;BME280;41907;47.848;9.000;2024-03-02T02:18:50;94661.94;;;2.92;100.00
56038;BME280;41907;47.848;9.000;2024-03-02T02:21:15;94663.13;;;2.81;100.00
56038;BME280;41907;47.848;9.000;2024-03-02T02:23:40;94665.53;;;2.78;100.00
56038;BME280;41907;47.848;9.000;2024-03-02T02:26:11;94670.03;;;2.77;100.00
56038;BME280;41907;47.848;9.000;2024-03-02T02:28:36;94680.19;;;2.84;100.00
56038;BME280;41907;47.848;9.000;2024-03-02T02:31:02;94674.31;;;2.92;100.00
56038;BME280;41907;47.848;9.000;2024-03-02T02:33:28;94670.59;;;2.93;100.00
56038;BME280;41907;47.848;9.000;2024-03-02T02:35:54;94672.28;;;3.03;100.00
56038;BME280;41907;47.848;9.000;2024-03-02T02:38:19;94675.78;;;3.17;100.00
56038;BME280;41907;47.848;9.000;2024-03-02T02:40:45;94680.03;;;3.31;100.00
56038;BME280;41907;47.848;9.000;2024-03-02T02:43:10;94670.00;;;3.33;100.00
56038;BME280;41907;47.848;9.000;2024-03-02T02:45:36;94673.34;;;3.39;100.00
56038;BME280;41907;47.848;9.000;2024-03-02T02:48:01;94651.16;;;3.40;100.00
56038;BME280;41907;47.848;9.000;2024-03-02T02:50:28;94657.81;;;3.38;100.00
56038;BME280;41907;47.848;9.000;2024-03-02T02:52:53;94649.97;;;3.32;100.00
56038;BME280;41907;47.848;9.000;2024-03-02T02:55:18;94659.41;;;3.39;100.00
56038;BME280;41907;47.848;9.000;2024-03-02T02:57:44;94659.19;;;3.35;100.00
56038;BME280;41907;47.848;9.000;2024-03-02T03:00:13;94670.22;;;3.37;100.00
56038;BME280;41907;47.848;9.000;2024-03-02T03:02:46;94666.50;;;3.38;100.00
56038;BME280;41907;47.848;9.000;2024-03-02T03:05:13;94661.03;;;3.34;100.00
56038;BME280;41907;47.848;9.000;2024-03-02T03:07:39;94668.44;;;3.32;100.00
56038;BME280;41907;47.848;9.000;2024-03-02T03:10:06;94660.41;;;3.24;100.00
56038;BME280;41907;47.848;9.000;2024-03-02T03:12:32;94658.75;;;3.28;100.00
56038;BME280;41907;47.848;9.000;2024-03-02T03:14:58;94652.78;;;3.22;100.00
56038;BME280;41907;47.848;9.000;2024-03-02T03:17:24;94662.47;;;3.27;100.00
56038;BME280;41907;47.848;9.000;2024-03-02T03:19:50;94653.00;;;3.26;100.00
56038;BME280;41907;47.848;9.000;2024-03-02T03:22:16;94657.41;;;3.12;100.00
56038;BME280;41907;47.848;9.000;2024-03-02T03:24:41;94657.59;;;3.02;100.00
56038;BME280;41907;47.848;9.000;2024-03-02T03:27:06;94656.03;;;3.01;100.00
56038;BME280;41907;47.848;9.000;2024-03-02T03:29:32;94660.69;;;3.04;100.00
56038;BME280;41907;47.848;9.000;2024-03-02T03:31:57;94651.44;;;3.06;100.00
56038;BME280;41907;47.848;9.000;2024-03-02T03:34:22;94664.91;;;3.05;100.00
56038;BME280;41907;47.848;9.000;2024-03-02T03:36:48;94654.44;;;2.81;100.00
56038;BME280;41907;47.848;9.000;2024-03-02T03:39:13;94658.56;;;2.68;100.00
56038;BME280;41907;47.848;9.000;2024-03-02T03:41:40;94656.22;;;2.67;100.00
56038;BME280;41907;47.848;9.000;2024-03-02T03:44:05;94662.53;;;2.66;100.00
56038;BME280;41907;47.848;9.000;2024-03-02T03:46:31;94658.91;;;2.61;100.00
56038;BME280;41907;47.848;9.000;2024-03-02T03:48:56;94661.47;;;2.67;100.00
56038;BME280;41907;47.848;9.000;2024-03-02T03:51:21;94654.78;;;2.74;100.00
56038;BME280;41907;47.848;9.000;2024-03-02T03:53:48;94664.41;;;2.84;100.00
56038;BME280;41907;47.848;9.000;2024-03-02T03:56:13;94648.41;;;2.99;100.00
56038;BME280;41907;47.848;9.000;2024-03-02T03:58:39;94657.22;;;3.08;100.00
56038;BME280;41907;47.848;9.000;2024-03-02T04:01:04;94658.84;;;3.04;100.00
56038;BME280;41907;47.848;9.000;2024-03-02T04:03:29;94656.56;;;3.16;100.00
56038;BME280;41907;47.848;9.000;2024-03-02T04:05:55;94663.28;;;3.09;100.00
56038;BME280;41907;47.848;9.000;2024-03-02T04:08:21;94668.81;;;3.07;100.00
56038;BME280;41907;47.848;9.000;2024-03-02T04:10:46;94660.91;;;3.07;100.00
56038;BME280;41907;47.848;9.000;2024-03-02T04:13:11;94668.25;;;3.10;100.00
56038;BME280;41907;47.848;9.000;2024-03-02T04:15:37;94665.91;;;3.09;100.00
56038;BME280;41907;47.848;9.000;2024-03-02T04:18:02;94670.91;;;3.10;100.00
56038;BME280;41907;47.848;9.000;2024-03-02T04:20:28;94667.94;;;3.12;100.00
56038;BME280;41907;47.848;9.000;2024-03-02T04:22:53;94680.13;;;3.26;100.00
56038;BME280;41907;47.848;9.000;2024-03-02T04:25:18;94672.66;;;3.15;100.00
56038;BME280;41907;47.848;9.000;2024-03-02T04:27:45;94668.69;;;2.98;100.00
56038;BME280;41907;47.848;9.000;2024-03-02T04:30:10;94682.34;;;3.01;100.00
56038;BME280;41907;47.848;9.000;2024-03-02T04:32:36;94681.63;;;3.14;100.00
56038;BME280;41907;47.848;9.000;2024-03-02T04:35:01;94687.09;;;3.36;100.00
56038;BME280;41907;47.848;9.000;2024-03-02T04:37:27;94684.81;;;3.48;100.00
56038;BME280;41907;47.848;9.000;2024-03-02T04:39:52;94684.44;;;3.55;100.00
56038;BME280;41907;47.848;9.000;2024-03-02T04:42:18;94688.56;;;3.42;100.00
56038;BME280;41907;47.848;9.000;2024-03-02T04:44:43;94686.31;;;3.35;100.00
56038;BME280;41907;47.848;9.000;2024-03-02T04:47:08;94676.13;;;3.48;100.00
56038;BME280;41907;47.848;9.000;2024-03-02T04:49:34;94684.88;;;3.43;100.00
56038;BME280;41907;47.848;9.000;2024-03-02T04:51:59;94681.50;;;3.56;100.00
56038;BME280;41907;47.848;9.000;2024-03-02T04:54:24;94672.53;;;3.57;100.00
56038;BME280;41907;47.848;9.000;2024-03-02T04:56:50;94671.19;;;3.41;100.00
56038;BME280;41907;47.848;9.000;2024-03-02T04:59:16;94682.63;;;3.36;100.00
56038;BME280;41907;47.848;9.000;2024-03-02T05:01:42;94672.91;;;3.32;100.00
56038;BME280;41907;47.848;9.000;2024-03-02T05:04:08;94679.47;;;3.34;100.00
56038;BME280;41907;47.848;9.000;2024-03-02T05:06:33;94676.91;;;3.48;100.00
56038;BME280;41907;47.848;9.000;2024-03-02T05:08:59;94680.50;;;3.52;100.00
56038;BME280;41907;47.848;9.000;2024-03-02T05:11:24;94682.16;;;3.48;100.00
56038;BME280;41907;47.848;9.000;2024-03-02T05:14:02;94674.03;;;3.45;100.00
56038;BME280;41907;47.848;9.000;2024-03-02T05:16:27;94681.84;;;3.50;100.00
56038;BME280;41907;47.848;9.000;2024-03-02T05:18:52;94682.34;;;3.52;100.00
56038;BME280;41907;47.848;9.000;2024-03-02T05:21:18;94679.56;;;3.62;100.00
56038;BME280;41907;47.848;9.000;2024-03-02T05:23:43;94683.81;;;3.44;100.00
56038;BME280;41907;47.848;9.000;2024-03-02T05:26:09;94693.28;;;3.45;100.00
56038;BME280;41907;47.848;9.000;2024-03-02T05:28:38;94694.13;;;3.41;100.00
56038;BME280;41907;47.848;9.000;2024-03-02T05:31:03;94689.75;;;3.50;100.00
56038;BME280;41907;47.848;9.000;2024-03-02T05:33:29;94694.06;;;3.46;100.00
56038;BME280;41907;47.848;9.000;2024-03-02T05:35:56;94693.06;;;3.42;100.00
56038;BME280;41907;47.848;9.000;2024-03-02T05:38:21;94693.16;;;3.36;100.00
56038;BME280;41907;47.848;9.000;2024-03-02T05:40:47;94697.09;;;3.53;100.00
56038;BME280;41907;47.848;9.000;2024-03-02T05:43:12;94694.25;;;3.68;100.00
56038;BME280;41907;47.848;9.000;2024-03-02T05:45:38;94700.25;;;3.55;100.00
56038;BME280;41907;47.848;9.000;2024-03-02T05:48:05;94691.56;;;3.54;100.00
56038;BME280;41907;47.848;9.000;2024-03-02T05:50:31;94704.44;;;3.56;100.00
56038;BME280;41907;47.848;9.000;2024-03-02T05:52:56;94696.88;;;3.68;100.00
56038;BME280;41907;47.848;9.000;2024-03-02T05:55:22;94695.09;;;3.63;100.00
56038;BME280;41907;47.848;9.000;2024-03-02T05:57:47;94691.63;;;3.49;100.00
56038;BME280;41907;47.848;9.000;2024-03-02T06:00:24;94704.88;;;3.44;100.00
56038;BME280;41907;47.848;9.000;2024-03-02T06:02:50;94699.72;;;3.39;100.00
56038;BME280;41907;47.848;9.000;2024-03-02T06:05:15;94703.59;;;3.42;100.00
56038;BME280;41907;47.848;9.000;2024-03-02T06:07:44;94705.00;;;3.53;100.00
56038;BME280;41907;47.848;9.000;2024-03-02T06:10:09;94701.59;;;3.52;100.00
56038;BME280;41907;47.848;9.000;2024-03-02T06:12:34;94712.97;;;3.66;100.00
56038;BME280;41907;47.848;9.000;2024-03-02T06:15:00;94719.56;;;3.83;100.00
56038;BME280;41907;47.848;9.000;2024-03-02T06:17:25;94718.63;;;3.92;100.00
56038;BME280;41907;47.848;9.000;2024-03-02T06:19:50;94722.81;;;3.93;100.00
56038;BME280;41907;47.848;9.000;2024-03-02T06:22:16;94724.28;;;3.99;100.00
56038;BME280;41907;47.848;9.000;2024-03-02T06:24:41;94724.69;;;4.06;100.00
56038;BME280;41907;47.848;9.000;2024-03-02T06:27:07;94722.16;;;4.01;100.00
56038;BME280;41907;47.848;9.000;2024-03-02T06:29:33;94723.22;;;4.00;100.00
56038;BME280;41907;47.848;9.000;2024-03-02T06:31:59;94721.66;;;3.99;100.00
56038;BME280;41907;47.848;9.000;2024-03-02T06:34:24;94721.75;;;3.94;100.00
56038;BME280;41907;47.848;9.000;2024-03-02T06:36:49;94721.47;;;3.96;100.00
56038;BME280;41907;47.848;9.000;2024-03-02T06:39:15;94722.72;;;3.98;100.00
56038;BME280;41907;47.848;9.000;2024-03-02T06:41:40;94716.66;;;3.84;100.00
56038;BME280;41907;47.848;9.000;2024-03-02T06:44:05;94712.72;;;3.82;100.00
56038;BME280;41907;47.848;9.000;2024-03-02T06:46:31;94718.28;;;3.80;100.00
56038;BME280;41907;47.848;9.000;2024-03-02T06:48:57;94728.09;;;3.93;100.00
56038;BME280;41907;47.848;9.000;2024-03-02T06:51:22;94724.31;;;3.67;100.00
56038;BME280;41907;47.848;9.000;2024-03-02T06:53:48;94726.28;;;3.75;100.00
56038;BME280;41907;47.848;9.000;2024-03-02T06:56:13;94717.78;;;3.78;100.00
56038;BME280;41907;47.848;9.000;2024-03-02T06:58:40;94724.09;;;3.63;100.00
56038;BME280;41907;47.848;9.000;2024-03-02T07:01:05;94728.88;;;3.61;100.00
56038;BME280;41907;47.848;9.000;2024-03-02T07:03:30;94726.16;;;3.66;100.00
56038;BME280;41907;47.848;9.000;2024-03-02T07:05:56;94724.88;;;3.64;100.00
56038;BME280;41907;47.848;9.000;2024-03-02T07:08:22;94726.56;;;3.73;100.00
56038;BME280;41907;47.848;9.000;2024-03-02T07:10:47;94722.53;;;3.95;100.00
56038;BME280;41907;47.848;9.000;2024-03-02T07:13:12;94731.13;;;4.00;100.00
56038;BME280;41907;47.848;9.000;2024-03-02T07:15:38;94729.06;;;3.97;100.00
56038;BME280;41907;47.848;9.000;2024-03-02T07:18:15;94729.94;;;3.93;100.00
56038;BME280;41907;47.848;9.000;2024-03-02T07:20:41;94731.53;;;4.07;100.00
56038;BME280;41907;47.848;9.000;2024-03-02T07:23:06;94720.97;;;4.07;100.00
56038;BME280;41907;47.848;9.000;2024-03-02T07:25:31;94718.63;;;3.92;100.00
56038;BME280;41907;47.848;9.000;2024-03-02T07:27:57;94713.91;;;3.89;100.00
56038;BME280;41907;47.848;9.000;2024-03-02T07:30:22;94709.31;;;3.81;100.00
56038;BME280;41907;47.848;9.000;2024-03-02T07:32:50;94713.91;;;3.89;100.00
56038;BME280;41907;47.848;9.000;2024-03-02T07:35:15;94721.31;;;3.73;100.00
56038;BME280;41907;47.848;9.000;2024-03-02T07:37:41;94715.16;;;3.78;100.00
56038;BME280;41907;47.848;9.000;2024-03-02T07:40:07;94712.03;;;3.76;100.00
56038;BME280;41907;47.848;9.000;2024-03-02T07:42:39;94710.19;;;3.77;100.00
56038;BME280;41907;47.848;9.000;2024-03-02T07:45:05;94714.88;;;3.80;100.00
56038;BME280;41907;47.848;9.000;2024-03-02T07:47:32;94714.06;;;3.79;100.00
56038;BME280;41907;47.848;9.000;2024-03-02T07:49:58;94710.78;;;3.87;100.00
56038;BME280;41907;47.848;9.000;2024-03-02T07:52:23;94710.59;;;3.97;100.00
56038;BME280;41907;47.848;9.000;2024-03-02T07:54:48;94715.28;;;3.87;100.00
56038;BME280;41907;47.848;9.000;2024-03-02T07:57:14;94718.31;;;3.94;100.00
56038;BME280;41907;47.848;9.000;2024-03-02T07:59:39;94708.28;;;3.96;100.00
56038;BME280;41907;47.848;9.000;2024-03-02T08:02:05;94724.41;;;4.08;100.00
56038;BME280;41907;47.848;9.000;2024-03-02T08:04:30;94713.09;;;4.21;100.00
56038;BME280;41907;47.848;9.000;2024-03-02T08:06:56;94715.16;;;4.38;100.00
56038;BME280;41907;47.848;9.000;2024-03-02T08:09:21;94721.69;;;4.54;100.00
56038;BME280;41907;47.848;9.000;2024-03-02T08:11:46;94709.38;;;4.63;100.00
56038;BME280;41907;47.848;9.000;2024-03-02T08:14:12;94710.84;;;4.56;100.00
56038;BME280;41907;47.848;9.000;2024-03-02T08:16:37;94702.44;;;4.67;100.00
56038;BME280;41907;47.848;9.000;2024-03-02T08:19:03;94707.44;;;4.69;100.00
56038;BME280;41907;47.848;9.000;2024-03-02T08:21:28;94696.38;;;4.80;100.00
56038;BME280;41907;47.848;9.000;2024-03-02T08:23:56;94709.16;;;4.87;100.00
56038;BME280;41907;47.848;9.000;2024-03-02T08:26:22;94702.31;;;4.86;100.00
56038;BME280;41907;47.848;9.000;2024-03-02T08:28:47;94703.59;;;4.89;100.00
56038;BME280;41907;47.848;9.000;2024-03-02T08:31:13;94698.47;;;5.06;100.00
56038;BME280;41907;47.848;9.000;2024-03-02T08:33:38;94706.31;;;5.33;100.00
56038;BME280;41907;47.848;9.000;2024-03-02T08:36:04;94704.47;;;5.56;100.00
56038;BME280;41907;47.848;9.000;2024-03-02T08:38:29;94718.22;;;5.67;100.00
56038;BME280;41907;47.848;9.000;2024-03-02T08:40:55;94712.03;;;5.71;100.00
56038;BME280;41907;47.848;9.000;2024-03-02T08:43:20;94704.25;;;5.88;100.00
56038;BME280;41907;47.848;9.000;2024-03-02T08:45:47;94704.91;;;5.94;100.00
56038;BME280;41907;47.848;9.000;2024-03-02T08:48:13;94701.53;;;6.02;100.00
56038;BME280;41907;47.848;9.000;2024-03-02T08:50:38;94695.72;;;5.91;100.00
56038;BME280;41907;47.848;9.000;2024-03-02T08:53:04;94695.75;;;5.78;100.00
56038;BME280;41907;47.848;9.000;2024-03-02T08:55:29;94694.13;;;5.90;100.00
56038;BME280;41907;47.848;9.000;2024-03-02T08:57:55;94694.13;;;6.13;100.00
56038;BME280;41907;47.848;9.000;2024-03-02T09:00:21;94698.38;;;6.22;100.00
56038;BME280;41907;47.848;9.000;2024-03-02T09:02:46;94697.97;;;6.46;100.00
56038;BME280;41907;47.848;9.000;2024-03-02T09:05:12;94697.16;;;6.77;100.00
56038;BME280;41907;47.848;9.000;2024-03-02T09:07:37;94692.06;;;7.15;100.00
56038;BME280;41907;47.848;9.000;2024-03-02T09:10:07;94690.19;;;7.15;100.00
56038;BME280;41907;47.848;9.000;2024-03-02T09:12:32;94692.84;;;7.24;100.00
56038;BME280;41907;47.848;9.000;2024-03-02T09:14:59;94695.59;;;6.84;100.00
56038;BME280;41907;47.848;9.000;2024-03-02T09:17:25;94682.81;;;6.78;100.00
56038;BME280;41907;47.848;9.000;2024-03-02T09:19:50;94684.56;;;6.43;100.00
56038;BME280;41907;47.848;9.000;2024-03-02T09:22:18;94684.31;;;6.13;100.00
56038;BME280;41907;47.848;9.000;2024-03-02T09:24:43;94682.78;;;6.69;100.00
56038;BME280;41907;47.848;9.000;2024-03-02T09:27:09;94676.75;;;8.44;100.00
56038;BME280;41907;47.848;9.000;2024-03-02T09:29:34;94668.28;;;9.51;100.00
56038;BME280;41907;47.848;9.000;2024-03-02T09:31:59;94659.91;;;9.41;100.00
56038;BME280;41907;47.848;9.000;2024-03-02T09:34:25;94667.25;;;9.77;100.00
56038;BME280;41907;47.848;9.000;2024-03-02T09:36:51;94661.56;;;10.11;100.00
56038;BME280;41907;47.848;9.000;2024-03-02T09:39:17;94660.97;;;9.81;100.00
56038;BME280;41907;47.848;9.000;2024-03-02T09:41:43;94654.09;;;9.92;100.00
56038;BME280;41907;47.848;9.000;2024-03-02T09:44:09;94650.56;;;10.82;100.00
56038;BME280;41907;47.848;9.000;2024-03-02T09:46:35;94647.69;;;11.27;96.05
56038;BME280;41907;47.848;9.000;2024-03-02T09:49:02;94652.91;;;11.36;91.76
56038;BME280;41907;47.848;9.000;2024-03-02T09:51:27;94648.22;;;10.93;90.04
56038;BME280;41907;47.848;9.000;2024-03-02T09:53:54;94649.31;;;11.04;91.37
56038;BME280;41907;47.848;9.000;2024-03-02T09:56:21;94649.63;;;11.54;91.34
56038;BME280;41907;47.848;9.000;2024-03-02T09:58:47;94643.91;;;12.75;88.46
56038;BME280;41907;47.848;9.000;2024-03-02T10:01:12;94630.16;;;14.46;75.40
56038;BME280;41907;47.848;9.000;2024-03-02T10:03:38;94633.97;;;14.45;71.67
56038;BME280;41907;47.848;9.000;2024-03-02T10:08:44;94640.44;;;15.16;63.96
56038;BME280;41907;47.848;9.000;2024-03-02T10:11:09;94639.31;;;15.77;61.49
56038;BME280;41907;47.848;9.000;2024-03-02T10:13:34;94633.63;;;15.82;61.57
56038;BME280;41907;47.848;9.000;2024-03-02T10:16:11;94634.72;;;16.51;59.18
56038;BME280;41907;47.848;9.000;2024-03-02T10:18:37;94633.13;;;16.47;58.54
56038;BME280;41907;47.848;9.000;2024-03-02T10:21:14;94627.97;;;16.68;57.09
56038;BME280;41907;47.848;9.000;2024-03-02T10:23:40;94626.31;;;17.04;55.66
56038;BME280;41907;47.848;9.000;2024-03-02T10:26:17;94627.28;;;17.40;54.52
56038;BME280;41907;47.848;9.000;2024-03-02T10:28:47;94631.75;;;17.80;52.65
56038;BME280;41907;47.848;9.000;2024-03-02T10:31:17;94617.91;;;18.03;53.04
56038;BME280;41907;47.848;9.000;2024-03-02T10:33:42;94613.78;;;18.48;51.33
56038;BME280;41907;47.848;9.000;2024-03-02T10:36:08;94611.88;;;18.94;51.17
56038;BME280;41907;47.848;9.000;2024-03-02T10:38:34;94612.66;;;18.77;50.39
56038;BME280;41907;47.848;9.000;2024-03-02T10:40:59;94613.56;;;19.90;49.17
56038;BME280;41907;47.848;9.000;2024-03-02T10:43:25;94605.03;;;20.64;46.24
56038;BME280;41907;47.848;9.000;2024-03-02T10:45:52;94616.63;;;19.92;46.90
56038;BME280;41907;47.848;9.000;2024-03-02T10:48:17;94611.72;;;19.69;48.14
56038;BME280;41907;47.848;9.000;2024-03-02T10:50:43;94605.75;;;20.68;46.58
56038;BME280;41907;47.848;9.000;2024-03-02T10:53:08;94612.84;;;20.55;45.06
56038;BME280;41907;47.848;9.000;2024-03-02T10:55:34;94617.44;;;19.85;45.85
56038;BME280;41907;47.848;9.000;2024-03-02T10:58:00;94610.28;;;19.32;49.19
56038;BME280;41907;47.848;9.000;2024-03-02T11:00:33;94598.84;;;20.60;47.51
56038;BME280;41907;47.848;9.000;2024-03-02T11:03:05;94593.28;;;21.60;45.13
56038;BME280;41907;47.848;9.000;2024-03-02T11:05:36;94587.44;;;21.28;43.13
56038;BME280;41907;47.848;9.000;2024-03-02T11:08:07;94587.44;;;21.28;44.78
56038;BME280;41907;47.848;9.000;2024-03-02T11:10:54;94577.00;;;21.90;41.82
56038;BME280;41907;47.848;9.000;2024-03-02T11:13:27;94584.38;;;22.20;41.86
56038;BME280;41907;47.848;9.000;2024-03-02T11:15:59;94571.06;;;23.03;40.39
56038;BME280;41907;47.848;9.000;2024-03-02T11:18:28;94577.44;;;23.59;39.09
56038;BME280;41907;47.848;9.000;2024-03-02T11:20:55;94575.88;;;23.38;39.81
56038;BME280;41907;47.848;9.000;2024-03-02T11:23:32;94575.00;;;22.79;42.32
56038;BME280;41907;47.848;9.000;2024-03-02T11:26:21;94571.59;;;23.18;40.93
56038;BME280;41907;47.848;9.000;2024-03-02T11:28:49;94569.97;;;23.63;38.99
56038;BME280;41907;47.848;9.000;2024-03-02T11:31:14;94565.59;;;23.07;40.42
56038;BME280;41907;47.848;9.000;2024-03-02T11:33:40;94560.13;;;22.60;41.90
56038;BME280;41907;47.848;9.000;2024-03-02T11:36:09;94556.78;;;22.76;41.34
56038;BME280;41907;47.848;9.000;2024-03-02T11:38:35;94547.94;;;22.68;41.79
56038;BME280;41907;47.848;9.000;2024-03-02T11:41:02;94542.78;;;22.77;41.34
56038;BME280;41907;47.848;9.000;2024-03-02T11:43:29;94529.28;;;22.70;41.67
56038;BME280;41907;47.848;9.000;2024-03-02T11:46:03;94523.31;;;22.55;41.22
56038;BME280;41907;47.848;9.000;2024-03-02T11:48:32;94533.06;;;22.53;41.35
56038;BME280;41907;47.848;9.000;2024-03-02T11:50:58;94520.53;;;22.36;40.84
56038;BME280;41907;47.848;9.000;2024-03-02T11:53:26;94521.63;;;21.84;40.92
56038;BME280;41907;47.848;9.000;2024-03-02T11:55:55;94513.78;;;21.63;44.46
56038;BME280;41907;47.848;9.000;2024-03-02T11:58:21;94500.41;;;22.06;42.47
56038;BME280;41907;47.848;9.000;2024-03-02T12:00:55;94506.16;;;22.12;42.32
56038;BME280;41907;47.848;9.000;2024-03-02T12:03:22;94498.38;;;21.83;44.03
56038;BME280;41907;47.848;9.000;2024-03-02T12:05:49;94497.56;;;21.86;44.27
56038;BME280;41907;47.848;9.000;2024-03-02T12:08:15;94484.41;;;21.85;43.30
56038;BME280;41907;47.848;9.000;2024-03-02T12:10:40;94484.91;;;21.49;43.28
56038;BME280;41907;47.848;9.000;2024-03-02T12:13:06;94481.69;;;20.49;45.53
56038;BME280;41907;47.848;9.000;2024-03-02T12:15:37;94477.69;;;20.64;46.61
56038;BME280;41907;47.848;9.000;2024-03-02T12:18:03;94471.19;;;20.55;46.06
56038;BME280;41907;47.848;9.000;2024-03-02T12:20:31;94474.84;;;20.30;44.46
56038;BME280;41907;47.848;9.000;2024-03-02T12:23:01;94468.38;;;18.39;48.14
56038;BME280;41907;47.848;9.000;2024-03-02T12:25:27;94457.22;;;17.80;50.09
56038;BME280;41907;47.848;9.000;2024-03-02T12:27:57;94463.28;;;17.45;51.28
56038;BME280;41907;47.848;9.000;2024-03-02T12:30:27;94453.03;;;16.82;54.62
56038;BME280;41907;47.848;9.000;2024-03-02T12:32:54;94451.22;;;17.11;51.08
56038;BME280;41907;47.848;9.000;2024-03-02T12:35:19;94448.53;;;17.04;50.70
56038;BME280;41907;47.848;9.000;2024-03-02T12:37:49;94446.94;;;16.96;51.74
56038;BME280;41907;47.848;9.000;2024-03-02T12:40:17;94444.22;;;16.92;48.63
56038;BME280;41907;47.848;9.000;2024-03-02T12:42:44;94447.91;;;16.05;49.72
56038;BME280;41907;47.848;9.000;2024-03-02T12:45:09;94436.09;;;16.13;52.04
56038;BME280;41907;47.848;9.000;2024-03-02T12:47:35;94426.94;;;15.73;50.14
56038;BME280;41907;47.848;9.000;2024-03-02T12:50:02;94419.09;;;15.54;52.45
56038;BME280;41907;47.848;9.000;2024-03-02T12:52:28;94422.72;;;15.35;54.03
56038;BME280;41907;47.848;9.000;2024-03-02T12:54:53;94420.38;;;15.71;54.92
56038;BME280;41907;47.848;9.000;2024-03-02T12:57:24;94418.88;;;15.73;55.37
56038;BME280;41907;47.848;9.000;2024-03-02T12:59:50;94413.50;;;15.77;52.98
56038;BME280;41907;47.848;9.000;2024-03-02T13:02:19;94415.69;;;15.57;53.25